Akron Fulton Intl Information

FAA: AKR - ICAO: KAKR

Akron Fulton Intl (Airport) Location

State Ohio
County Summit
City Akron
Akron Fulton Intl (Airport) is 4 miles southeast of Akron, OH.
Latitude 41-02-15.0000N
Longitude 081-28-00.9000W
Elevation 1,067ft

Akron Fulton Intl METARs

METAR KAKR 191203Z AUTO 23007KT 210V270 5SM HZ SCT009 OVC029 18/15 A2974 RMK AO2 T01780150
Altimeter 29.74"
Temperature 17.8°C (64.0°F)
Wind 230° at 7KT
Clouds scattered at 900ft overcast at 2,900ft
Visibility 5.0mi
Time observed: 2022-05-19T12:03:00Z

Akron Fulton Intl (Airport) Details

Status Operational
Activation November 1938
Ownership Public
Usage Public
Chart DETROIT
ATC on-site No
Beacon schedule sunset-sunrise
Beacon color clear green

Akron Fulton Intl (Airport) Contacts

Owner CITY OF AKRON
Owner address 166 S HIGH ST RM 701, AKRON, OH 44308-1627
Owner phone 330-375-2355
Manager MARK CHRISTIANSON
Manager address PO BOX 9177, FARGO, ND 58104
Manager phone 701-238-8337

Akron Fulton Intl Radio Frequencies

Akron Fulton Intl (Airport) Radio Frequencies

UNICOM 123.075
Common traffic advisory frequency (CTAF) 123.075